createdAt,value
2023-02-12T00:01:04.047Z,22.30
2023-02-12T00:03:31.657Z,20.92
2023-02-12T00:06:03.100Z,23.80
2023-02-12T00:08:31.079Z,22.60
2023-02-12T00:10:59.025Z,25.25
2023-02-12T00:13:26.676Z,23.77
2023-02-12T00:15:54.796Z,23.92
2023-02-12T00:18:22.554Z,25.48
2023-02-12T00:20:50.098Z,24.48
2023-02-12T00:23:19.040Z,21.85
2023-02-12T00:25:46.663Z,21.70
2023-02-12T00:28:14.211Z,32.95
2023-02-12T00:30:41.992Z,27.15
2023-02-12T00:33:09.582Z,22.05
2023-02-12T00:35:37.215Z,20.40
2023-02-12T00:38:04.836Z,18.77
2023-02-12T00:40:33.744Z,21.98
2023-02-12T00:43:01.262Z,19.45
2023-02-12T00:45:28.963Z,20.30
2023-02-12T00:47:56.550Z,21.63
2023-02-12T00:50:24.108Z,19.88
2023-02-12T00:52:51.658Z,20.38
2023-02-12T00:55:19.485Z,25.20
2023-02-12T00:57:48.660Z,23.77
2023-02-12T01:00:17.247Z,20.63
2023-02-12T01:02:44.854Z,25.15
2023-02-12T01:05:12.621Z,21.02
2023-02-12T01:07:40.710Z,29.35
2023-02-12T01:10:09.591Z,24.10
2023-02-12T01:12:37.198Z,23.63
2023-02-12T01:15:07.287Z,25.33
2023-02-12T01:17:34.864Z,23.75
2023-02-12T01:20:02.449Z,23.33
2023-02-12T01:22:30.030Z,24.45
2023-02-12T01:24:57.870Z,25.10
2023-02-12T01:27:25.831Z,20.70
2023-02-12T01:29:53.889Z,23.02
2023-02-12T01:32:23.841Z,22.83
2023-02-12T01:34:51.555Z,23.38
2023-02-12T01:37:21.357Z,21.65
2023-02-12T01:39:48.955Z,23.25
2023-02-12T01:42:18.635Z,28.15
2023-02-12T01:45:06.720Z,23.50
2023-02-12T01:47:35.596Z,21.83
2023-02-12T01:50:03.208Z,25.40
2023-02-12T01:52:35.409Z,23.73
2023-02-12T01:55:08.241Z,22.73
2023-02-12T01:57:39.841Z,24.60
2023-02-12T02:00:11.617Z,21.50
2023-02-12T02:02:46.069Z,24.85
2023-02-12T02:05:21.441Z,23.58
2023-02-12T02:07:50.307Z,24.50
2023-02-12T02:10:18.195Z,20.33
2023-02-12T02:13:03.245Z,24.92
2023-02-12T02:15:32.721Z,23.00
2023-02-12T02:18:09.059Z,19.63
2023-02-12T02:21:14.078Z,23.90
2023-02-12T02:23:57.782Z,20.92
2023-02-12T02:27:00.215Z,25.60
2023-02-12T02:29:43.934Z,23.75
2023-02-12T02:32:15.740Z,21.40
2023-02-12T02:34:51.198Z,22.33
2023-02-12T02:37:24.034Z,22.90
2023-02-12T02:39:56.048Z,17.10
2023-02-12T02:42:28.544Z,19.63
2023-02-12T02:45:01.468Z,24.33
2023-02-12T02:47:35.083Z,22.05
2023-02-12T02:50:05.972Z,21.17
2023-02-12T02:52:39.075Z,21.50
2023-02-12T02:55:08.761Z,24.42
2023-02-12T02:57:40.799Z,23.77
2023-02-12T03:00:14.608Z,23.42
2023-02-12T03:02:50.312Z,20.25
2023-02-12T03:05:24.720Z,19.58
2023-02-12T03:07:57.549Z,23.55
2023-02-12T03:10:30.178Z,20.60
2023-02-12T03:13:03.447Z,20.60
2023-02-12T03:15:36.976Z,23.67
2023-02-12T03:18:11.433Z,25.27
2023-02-12T03:20:43.966Z,23.58
2023-02-12T03:23:16.143Z,15.13
2023-02-12T03:25:50.889Z,20.95
2023-02-12T03:28:22.855Z,21.23
2023-02-12T03:30:59.225Z,20.60
2023-02-12T03:33:36.885Z,21.75
2023-02-12T03:36:27.203Z,22.30
2023-02-12T03:38:57.572Z,19.65
2023-02-12T03:41:32.367Z,21.00
2023-02-12T03:44:09.152Z,21.02
2023-02-12T03:46:44.015Z,22.60
2023-02-12T03:49:21.957Z,22.00
2023-02-12T03:51:49.606Z,21.52
2023-02-12T03:54:21.028Z,25.08
2023-02-12T03:56:53.132Z,24.08
2023-02-12T03:59:21.891Z,21.23
2023-02-12T04:01:50.820Z,22.50
2023-02-12T04:04:20.580Z,22.58
2023-02-12T04:06:50.124Z,22.52
2023-02-12T04:09:18.729Z,22.35
2023-02-12T04:11:58.978Z,22.80
2023-02-12T04:14:35.846Z,24.60
2023-02-12T04:17:10.108Z,25.00
2023-02-12T04:19:49.733Z,23.08
2023-02-12T04:22:27.618Z,22.35
2023-02-12T04:25:01.893Z,20.05
2023-02-12T04:27:39.060Z,22.23
2023-02-12T04:30:10.154Z,27.63
2023-02-12T04:32:44.230Z,22.95
2023-02-12T04:35:20.183Z,21.80
2023-02-12T04:37:52.580Z,21.73
2023-02-12T04:40:22.603Z,23.85
2023-02-12T04:42:52.056Z,18.15
2023-02-12T04:45:24.161Z,23.00
2023-02-12T04:47:51.706Z,22.65
2023-02-12T04:50:21.239Z,20.45
2023-02-12T04:52:48.961Z,22.65
2023-02-12T04:55:16.934Z,19.58
2023-02-12T04:57:44.621Z,24.73
2023-02-12T05:00:15.220Z,21.67
2023-02-12T05:02:42.741Z,17.92
2023-02-12T05:05:10.362Z,18.85
2023-02-12T05:07:39.331Z,18.25
2023-02-12T05:10:08.188Z,19.70
2023-02-12T05:12:35.798Z,21.77
2023-02-12T05:15:03.354Z,20.73
2023-02-12T05:17:31.172Z,23.60
2023-02-12T05:19:58.677Z,20.25
2023-02-12T05:22:26.238Z,18.67
2023-02-12T05:24:55.100Z,19.50
2023-02-12T05:27:22.665Z,17.38
2023-02-12T05:29:50.235Z,19.08
2023-02-12T05:32:17.842Z,22.77
2023-02-12T05:34:45.509Z,17.75
2023-02-12T05:37:13.026Z,17.67
2023-02-12T05:39:40.832Z,18.73
2023-02-12T05:42:09.735Z,17.85
2023-02-12T05:44:37.349Z,18.02
2023-02-12T05:47:04.965Z,18.55
2023-02-12T05:49:32.486Z,19.30
2023-02-12T05:52:00.098Z,19.23
2023-02-12T05:54:31.010Z,17.10
2023-02-12T05:56:58.590Z,21.27
2023-02-12T05:59:27.478Z,19.58
2023-02-12T06:01:55.181Z,24.15
2023-02-12T06:04:25.016Z,20.40
2023-02-12T06:06:53.438Z,21.02
2023-02-12T06:09:21.105Z,18.50
2023-02-12T06:11:48.830Z,16.15
2023-02-12T06:14:18.440Z,19.27
2023-02-12T06:16:49.602Z,19.52
2023-02-12T06:19:17.990Z,20.63
2023-02-12T06:21:45.799Z,18.95
2023-02-12T06:24:14.645Z,22.23
2023-02-12T06:26:45.074Z,19.90
2023-02-12T06:29:13.143Z,17.88
2023-02-12T06:31:40.979Z,18.48
2023-02-12T06:34:12.317Z,19.70
2023-02-12T06:36:41.761Z,20.25
2023-02-12T06:39:09.641Z,18.20
2023-02-12T06:41:37.262Z,20.67
2023-02-12T06:44:05.160Z,17.40
2023-02-12T06:46:33.466Z,19.33
2023-02-12T06:49:02.268Z,18.50
2023-02-12T06:51:32.108Z,16.73
2023-02-12T06:53:59.701Z,21.05
2023-02-12T06:56:28.448Z,23.75
2023-02-12T06:58:58.398Z,18.73
2023-02-12T07:01:28.544Z,19.17
2023-02-12T07:03:57.704Z,16.30
2023-02-12T07:06:29.084Z,18.98
2023-02-12T07:08:58.647Z,16.45
2023-02-12T07:11:27.742Z,21.98
2023-02-12T07:13:55.614Z,23.88
2023-02-12T07:16:23.639Z,17.08
2023-02-12T07:18:51.298Z,17.92
2023-02-12T07:21:19.590Z,17.77
2023-02-12T07:23:50.970Z,18.00
2023-02-12T07:26:22.120Z,18.30
2023-02-12T07:28:50.507Z,17.77
2023-02-12T07:31:21.740Z,19.25
2023-02-12T07:33:50.328Z,20.42
2023-02-12T07:36:21.574Z,24.00
2023-02-12T07:38:49.918Z,21.10
2023-02-12T07:41:19.257Z,19.30
2023-02-12T07:43:50.206Z,21.17
2023-02-12T07:46:19.780Z,22.05
2023-02-12T07:48:48.016Z,20.05
2023-02-12T07:51:19.208Z,19.90
2023-02-12T07:53:46.896Z,19.55
2023-02-12T07:56:17.268Z,21.83
2023-02-12T07:58:46.695Z,20.67
2023-02-12T08:01:18.633Z,18.08
2023-02-12T08:03:47.128Z,23.58
2023-02-12T08:06:16.571Z,23.83
2023-02-12T08:08:44.270Z,19.52
2023-02-12T08:11:13.610Z,27.17
2023-02-12T08:13:41.847Z,27.45
2023-02-12T08:16:11.803Z,27.27
2023-02-12T08:18:42.210Z,27.30
2023-02-12T08:21:11.270Z,32.78
2023-02-12T08:23:39.355Z,33.08
2023-02-12T08:26:11.839Z,33.30
2023-02-12T08:28:42.200Z,33.47
2023-02-12T08:31:12.063Z,29.95
2023-02-12T08:33:41.081Z,29.33
2023-02-12T08:36:11.334Z,31.75
2023-02-12T08:38:40.475Z,29.45
2023-02-12T08:41:10.025Z,30.10
2023-02-12T08:43:38.561Z,27.85
2023-02-12T08:46:08.189Z,28.15
2023-02-12T08:48:35.776Z,29.10
2023-02-12T08:51:09.836Z,29.67
2023-02-12T08:53:38.772Z,28.17
2023-02-12T08:56:07.171Z,28.60
2023-02-12T08:58:35.258Z,29.35
2023-02-12T09:01:03.124Z,25.65
2023-02-12T09:03:30.702Z,27.98
2023-02-12T09:05:58.716Z,25.67
2023-02-12T09:08:27.645Z,26.38
2023-02-12T09:10:55.188Z,30.48
2023-02-12T09:13:22.751Z,31.00
2023-02-12T09:15:50.414Z,28.17
2023-02-12T09:18:18.173Z,29.52
2023-02-12T09:20:46.326Z,28.80
2023-02-12T09:23:15.753Z,32.13
2023-02-12T09:25:46.252Z,28.02
2023-02-12T09:28:15.171Z,32.67
2023-02-12T09:30:42.791Z,32.95
2023-02-12T09:33:11.804Z,30.08
2023-02-12T09:35:40.179Z,33.67
2023-02-12T09:38:08.599Z,31.90
2023-02-12T09:40:44.937Z,32.15
2023-02-12T09:43:31.742Z,29.00
2023-02-12T09:46:04.779Z,30.40
2023-02-12T09:48:49.191Z,28.50
2023-02-12T09:51:17.007Z,29.50
2023-02-12T09:53:47.545Z,28.45
2023-02-12T09:56:19.428Z,31.40
2023-02-12T09:58:52.476Z,30.05
2023-02-12T10:01:22.045Z,24.23
2023-02-12T10:03:51.529Z,29.83
2023-02-12T10:06:21.916Z,25.70
2023-02-12T10:09:26.545Z,25.67
2023-02-12T10:12:01.770Z,23.27
2023-02-12T10:15:00.986Z,20.83
2023-02-12T10:17:46.872Z,20.75
2023-02-12T10:20:47.682Z,21.83
2023-02-12T10:23:48.295Z,18.73
2023-02-12T10:26:22.867Z,17.85
2023-02-12T10:28:52.083Z,14.88
2023-02-12T10:31:30.371Z,13.88
2023-02-12T10:33:58.921Z,15.80
2023-02-12T10:36:41.029Z,14.40
2023-02-12T10:39:19.704Z,13.82
2023-02-12T10:41:54.524Z,12.68
2023-02-12T10:44:22.149Z,14.38
2023-02-12T10:46:51.117Z,17.40
2023-02-12T10:49:20.326Z,13.80
2023-02-12T10:52:10.541Z,15.93
2023-02-12T10:54:41.506Z,10.52
2023-02-12T10:57:13.616Z,7.45
2023-02-12T10:59:42.026Z,9.20
2023-02-12T11:02:35.311Z,7.50
2023-02-12T11:05:24.740Z,7.22
2023-02-12T11:07:53.234Z,5.55
2023-02-12T11:10:22.533Z,7.10
2023-02-12T11:12:50.218Z,7.60
2023-02-12T11:15:20.470Z,7.85
2023-02-12T11:17:57.825Z,7.88
2023-02-12T11:20:28.092Z,7.00
2023-02-12T11:22:59.216Z,9.23
2023-02-12T11:25:29.819Z,8.63
2023-02-12T11:28:07.747Z,6.78
2023-02-12T11:30:36.643Z,7.88
2023-02-12T11:33:23.690Z,8.65
2023-02-12T11:35:53.762Z,9.45
2023-02-12T11:38:28.818Z,7.47
2023-02-12T11:41:00.429Z,6.85
2023-02-12T11:43:30.908Z,8.65
2023-02-12T11:46:00.562Z,8.02
2023-02-12T11:48:33.267Z,7.90
2023-02-12T11:51:03.668Z,9.43
2023-02-12T11:53:34.597Z,8.90
2023-02-12T11:56:05.385Z,11.63
2023-02-12T11:58:33.066Z,12.18
2023-02-12T12:01:11.672Z,11.45
2023-02-12T12:03:47.637Z,13.70
2023-02-12T12:06:25.147Z,12.27
2023-02-12T12:08:58.399Z,11.25
2023-02-12T12:11:30.240Z,12.90
2023-02-12T12:14:04.655Z,13.30
2023-02-12T12:16:56.704Z,13.25
2023-02-12T12:19:51.375Z,13.77
2023-02-12T12:22:29.040Z,15.18
2023-02-12T12:25:01.419Z,14.65
2023-02-12T12:27:54.813Z,13.07
2023-02-12T12:30:30.264Z,11.18
2023-02-12T12:33:02.464Z,11.85
2023-02-12T12:35:45.618Z,12.00
2023-02-12T12:38:25.929Z,12.15
2023-02-12T12:41:07.530Z,10.77
2023-02-12T12:43:50.038Z,12.23
2023-02-12T12:46:35.457Z,8.82
2023-02-12T12:49:21.892Z,12.70
2023-02-12T12:52:13.223Z,11.05
2023-02-12T12:54:56.574Z,11.10
2023-02-12T12:57:39.474Z,10.35
2023-02-12T13:00:24.438Z,7.00
2023-02-12T13:03:12.686Z,8.50
2023-02-12T13:06:10.844Z,10.15
2023-02-12T13:08:56.402Z,9.38
2023-02-12T13:11:36.379Z,10.90
2023-02-12T13:14:18.669Z,10.70
2023-02-12T13:16:49.044Z,11.25
2023-02-12T13:19:25.546Z,10.48
2023-02-12T13:22:01.511Z,11.05
2023-02-12T13:24:39.727Z,9.30
2023-02-12T13:27:11.853Z,12.85
2023-02-12T13:29:44.196Z,8.52
2023-02-12T13:32:17.519Z,7.75
2023-02-12T13:37:35.147Z,7.03
2023-02-12T13:40:08.028Z,8.90
2023-02-12T13:42:44.931Z,7.53
2023-02-12T13:45:25.787Z,10.20
2023-02-12T13:48:06.466Z,8.85
2023-02-12T13:50:42.902Z,7.60
2023-02-12T13:53:20.860Z,7.28
2023-02-12T13:56:03.052Z,7.25
2023-02-12T13:58:41.478Z,7.18
2023-02-12T14:01:12.409Z,8.52
2023-02-12T14:03:41.015Z,7.55
2023-02-12T14:06:15.335Z,6.65
2023-02-12T14:08:46.042Z,7.38
2023-02-12T14:11:17.652Z,6.72
2023-02-12T14:13:54.881Z,7.97
2023-02-12T14:16:39.705Z,6.95
2023-02-12T14:19:54.897Z,6.25
2023-02-12T14:23:00.006Z,7.28
2023-02-12T14:25:34.725Z,4.63
2023-02-12T14:28:14.139Z,5.50
2023-02-12T14:30:42.117Z,5.93
2023-02-12T14:33:21.946Z,5.05
2023-02-12T14:35:51.005Z,4.97
2023-02-12T14:39:00.455Z,4.30
2023-02-12T14:41:38.454Z,3.63
2023-02-12T14:44:42.730Z,4.30
2023-02-12T14:47:44.550Z,3.53
2023-02-12T14:50:19.752Z,3.35
2023-02-12T14:52:53.203Z,3.10
2023-02-12T14:55:26.167Z,4.60
2023-02-12T14:57:59.686Z,3.33
2023-02-12T15:00:31.002Z,4.28
2023-02-12T15:03:08.269Z,5.47
2023-02-12T15:05:42.242Z,3.30
2023-02-12T15:08:19.486Z,4.20
2023-02-12T15:10:51.206Z,3.53
2023-02-12T15:13:25.926Z,4.00
2023-02-12T15:15:56.617Z,4.28
2023-02-12T15:18:39.167Z,4.13
2023-02-12T15:21:14.875Z,4.45
2023-02-12T15:23:44.271Z,4.28
2023-02-12T15:26:15.523Z,6.20
2023-02-12T15:28:46.560Z,3.63
2023-02-12T15:31:17.856Z,4.60
2023-02-12T15:33:50.057Z,4.65
2023-02-12T15:36:20.216Z,4.07
2023-02-12T15:38:51.369Z,3.38
2023-02-12T15:41:28.465Z,4.82
2023-02-12T15:43:56.316Z,4.70
2023-02-12T15:46:24.703Z,4.10
2023-02-12T15:48:55.485Z,6.20
2023-02-12T15:51:29.438Z,3.42
2023-02-12T15:53:59.381Z,4.13
2023-02-12T15:56:28.167Z,5.07
2023-02-12T15:58:57.749Z,4.32
2023-02-12T16:01:27.977Z,4.55
2023-02-12T16:03:59.021Z,4.50
2023-02-12T16:06:29.338Z,4.53
2023-02-12T16:09:02.877Z,5.97
2023-02-12T16:11:33.105Z,6.72
2023-02-12T16:14:03.493Z,4.75
2023-02-12T16:16:40.126Z,5.35
2023-02-12T16:19:20.246Z,5.25
2023-02-12T16:21:49.601Z,4.97
2023-02-12T16:24:26.847Z,5.78
2023-02-12T16:26:55.054Z,6.95
2023-02-12T16:29:23.022Z,6.35
2023-02-12T16:31:56.052Z,5.78
2023-02-12T16:34:37.576Z,6.45
2023-02-12T16:37:43.292Z,7.32
2023-02-12T16:40:22.396Z,24.05
2023-02-12T16:43:02.609Z,44.72
2023-02-12T16:45:38.612Z,19.27
2023-02-12T16:48:17.514Z,11.85
2023-02-12T16:50:50.184Z,10.80
2023-02-12T16:53:36.598Z,8.07
2023-02-12T16:56:05.739Z,6.28
2023-02-12T16:58:33.499Z,6.82
2023-02-12T17:01:04.900Z,7.65
2023-02-12T17:03:32.671Z,7.00
2023-02-12T17:06:01.686Z,5.95
2023-02-12T17:08:29.269Z,6.10
2023-02-12T17:10:56.873Z,5.63
2023-02-12T17:13:24.424Z,5.40
2023-02-12T17:15:55.290Z,5.45
2023-02-12T17:18:23.695Z,4.28
2023-02-12T17:20:55.581Z,11.90
2023-02-12T17:23:25.071Z,8.75
2023-02-12T17:25:53.530Z,8.27
2023-02-12T17:28:22.799Z,77.70
2023-02-12T17:30:50.502Z,51.63
2023-02-12T17:33:18.258Z,50.83
2023-02-12T17:35:46.447Z,18.20
2023-02-12T17:38:14.077Z,10.07
2023-02-12T17:40:42.943Z,5.53
2023-02-12T17:43:10.803Z,4.32
2023-02-12T17:45:43.015Z,5.75
2023-02-12T17:48:11.231Z,6.80
2023-02-12T17:50:39.907Z,4.40
2023-02-12T17:53:08.759Z,5.00
2023-02-12T17:55:39.579Z,4.43
2023-02-12T17:58:08.675Z,5.72
2023-02-12T18:00:36.328Z,7.15
2023-02-12T18:03:03.990Z,14.35
2023-02-12T18:05:31.637Z,11.13
2023-02-12T18:07:59.659Z,9.52
2023-02-12T18:10:27.314Z,4.95
2023-02-12T18:12:55.260Z,7.18
2023-02-12T18:15:24.155Z,6.55
2023-02-12T18:17:51.891Z,8.52
2023-02-12T18:20:19.596Z,8.80
2023-02-12T18:22:47.407Z,4.63
2023-02-12T18:25:15.933Z,4.45
2023-02-12T18:27:44.341Z,7.10
2023-02-12T18:30:12.647Z,5.28
2023-02-12T18:32:41.674Z,7.43
2023-02-12T18:35:10.204Z,6.32
2023-02-12T18:37:37.915Z,6.53
2023-02-12T18:40:05.854Z,5.95
2023-02-12T18:42:33.406Z,5.53
2023-02-12T18:45:01.003Z,5.78
2023-02-12T18:47:28.678Z,6.22
2023-02-12T18:49:57.904Z,10.20
2023-02-12T18:52:25.924Z,7.38
2023-02-12T18:54:53.502Z,7.80
2023-02-12T18:57:21.226Z,8.50
2023-02-12T18:59:48.847Z,6.55
2023-02-12T19:02:16.454Z,11.45
2023-02-12T19:04:44.126Z,11.45
2023-02-12T19:07:13.074Z,11.18
2023-02-12T19:09:40.737Z,9.10
2023-02-12T19:12:08.914Z,10.48
2023-02-12T19:14:36.667Z,9.98
2023-02-12T19:17:04.219Z,10.63
2023-02-12T19:19:31.852Z,8.60
2023-02-12T19:21:59.582Z,11.73
2023-02-12T19:24:37.750Z,11.32
2023-02-12T19:27:12.157Z,11.00
2023-02-12T19:29:39.714Z,12.60
2023-02-12T19:32:07.437Z,9.75
2023-02-12T19:34:35.154Z,8.95
2023-02-12T19:37:02.864Z,8.38
2023-02-12T19:39:32.416Z,5.70
2023-02-12T19:42:00.014Z,8.52
2023-02-12T19:44:27.592Z,9.52
2023-02-12T19:46:56.432Z,9.05
2023-02-12T19:49:25.914Z,8.30
2023-02-12T19:51:54.012Z,8.77
2023-02-12T19:54:23.907Z,14.30
2023-02-12T19:56:53.684Z,15.10
2023-02-12T19:59:24.701Z,15.43
2023-02-12T20:01:52.611Z,14.38
2023-02-12T20:04:23.704Z,14.63
2023-02-12T20:06:52.325Z,16.52
2023-02-12T20:09:21.416Z,18.75
2023-02-12T20:11:48.993Z,16.98
2023-02-12T20:14:18.162Z,10.65
2023-02-12T20:16:47.511Z,10.07
2023-02-12T20:19:19.258Z,12.13
2023-02-12T20:21:48.722Z,11.95
2023-02-12T20:24:16.526Z,10.70
2023-02-12T20:26:44.068Z,9.75
2023-02-12T20:29:11.680Z,11.00
2023-02-12T20:31:40.765Z,11.55
2023-02-12T20:34:10.037Z,13.05
2023-02-12T20:36:40.170Z,13.77
2023-02-12T20:39:11.958Z,19.00
2023-02-12T20:41:39.551Z,17.48
2023-02-12T20:44:08.801Z,12.73
2023-02-12T20:46:39.363Z,11.98
2023-02-12T20:49:08.916Z,13.52
2023-02-12T20:51:36.847Z,12.40
2023-02-12T20:54:05.079Z,14.38
2023-02-12T20:56:34.010Z,10.93
2023-02-12T20:59:01.848Z,12.73
2023-02-12T21:01:34.541Z,12.75
2023-02-12T21:04:04.333Z,13.68
2023-02-12T21:06:34.217Z,13.05
2023-02-12T21:09:02.011Z,13.07
2023-02-12T21:11:30.680Z,14.13
2023-02-12T21:14:18.410Z,13.32
2023-02-12T21:16:47.531Z,12.15
2023-02-12T21:19:15.097Z,12.82
2023-02-12T21:21:45.448Z,11.63
2023-02-12T21:24:16.173Z,13.88
2023-02-12T21:26:44.251Z,13.98
2023-02-12T21:29:11.965Z,14.27
2023-02-12T21:31:41.982Z,14.88
2023-02-12T21:34:13.186Z,12.93
2023-02-12T21:36:42.121Z,15.35
2023-02-12T21:39:13.260Z,13.23
2023-02-12T21:41:42.705Z,15.85
2023-02-12T21:44:13.638Z,14.50
2023-02-12T21:46:42.241Z,13.25
2023-02-12T21:49:10.256Z,14.85
2023-02-12T21:51:40.189Z,12.98
2023-02-12T21:54:10.770Z,11.52
2023-02-12T21:56:41.634Z,12.40
2023-02-12T21:59:10.312Z,12.80
2023-02-12T22:01:46.152Z,12.57
2023-02-12T22:04:14.187Z,13.05
2023-02-12T22:06:43.679Z,13.18
2023-02-12T22:09:13.416Z,15.35
2023-02-12T22:11:43.484Z,13.75
2023-02-12T22:14:14.041Z,15.40
2023-02-12T22:16:41.766Z,17.70
2023-02-12T22:19:09.743Z,15.30
2023-02-12T22:21:39.424Z,14.30
2023-02-12T22:24:09.105Z,14.88
2023-02-12T22:26:37.013Z,17.88
2023-02-12T22:29:07.535Z,13.45
2023-02-12T22:31:38.225Z,15.68
2023-02-12T22:34:07.378Z,14.65
2023-02-12T22:36:36.360Z,16.40
2023-02-12T22:39:04.654Z,16.73
2023-02-12T22:41:32.747Z,14.98
2023-02-12T22:44:01.461Z,14.40
2023-02-12T22:46:30.389Z,15.07
2023-02-12T22:48:58.044Z,16.95
2023-02-12T22:51:28.482Z,13.02
2023-02-12T22:53:56.739Z,15.48
2023-02-12T22:56:24.364Z,15.98
2023-02-12T22:58:55.869Z,13.45
2023-02-12T23:01:24.129Z,13.35
2023-02-12T23:03:53.440Z,17.73
2023-02-12T23:06:22.879Z,13.57
2023-02-12T23:08:51.576Z,14.57
2023-02-12T23:11:19.949Z,15.48
2023-02-12T23:13:47.921Z,15.40
2023-02-12T23:16:15.527Z,15.45
2023-02-12T23:18:43.532Z,16.13
2023-02-12T23:21:12.745Z,15.38
2023-02-12T23:23:40.455Z,15.18
2023-02-12T23:26:08.211Z,15.65
2023-02-12T23:28:35.934Z,16.35
2023-02-12T23:31:03.817Z,17.20
2023-02-12T23:33:31.470Z,15.77
2023-02-12T23:35:59.051Z,16.63
2023-02-12T23:38:27.965Z,15.07
2023-02-12T23:40:55.972Z,18.48
2023-02-12T23:43:23.700Z,16.98
2023-02-12T23:45:51.257Z,17.17
2023-02-12T23:48:19.647Z,18.85
2023-02-12T23:50:50.340Z,17.10
2023-02-12T23:53:18.986Z,18.23
2023-02-12T23:55:50.908Z,14.63
2023-02-12T23:58:18.481Z,15.73
